sensor_id;sensor_type;location;lat;lon;timestamp;P1;durP1;ratioP1;P2;durP2;ratioP2
5295;SDS011;2670;42.720;23.336;2023-09-18T00:00:49;30.10;;;18.10;;
5295;SDS011;2670;42.720;23.336;2023-09-18T00:03:17;25.70;;;17.90;;
5295;SDS011;2670;42.720;23.336;2023-09-18T00:05:45;24.90;;;17.53;;
5295;SDS011;2670;42.720;23.336;2023-09-18T00:08:13;22.53;;;16.90;;
5295;SDS011;2670;42.720;23.336;2023-09-18T00:10:39;26.50;;;16.87;;
5295;SDS011;2670;42.720;23.336;2023-09-18T00:13:07;28.03;;;17.13;;
5295;SDS011;2670;42.720;23.336;2023-09-18T00:15:33;25.40;;;17.20;;
5295;SDS011;2670;42.720;23.336;2023-09-18T00:18:02;25.40;;;16.23;;
5295;SDS011;2670;42.720;23.336;2023-09-18T00:20:31;21.47;;;16.90;;
5295;SDS011;2670;42.720;23.336;2023-09-18T00:22:58;33.37;;;17.53;;
5295;SDS011;2670;42.720;23.336;2023-09-18T00:25:24;23.60;;;17.67;;
5295;SDS011;2670;42.720;23.336;2023-09-18T00:27:51;21.20;;;16.80;;
5295;SDS011;2670;42.720;23.336;2023-09-18T00:30:18;25.37;;;17.23;;
5295;SDS011;2670;42.720;23.336;2023-09-18T00:32:44;24.07;;;17.60;;
5295;SDS011;2670;42.720;23.336;2023-09-18T00:35:12;20.57;;;16.43;;
5295;SDS011;2670;42.720;23.336;2023-09-18T00:37:40;21.93;;;17.03;;
5295;SDS011;2670;42.720;23.336;2023-09-18T00:40:08;27.23;;;16.80;;
5295;SDS011;2670;42.720;23.336;2023-09-18T00:42:36;26.70;;;14.87;;
5295;SDS011;2670;42.720;23.336;2023-09-18T00:45:03;20.17;;;15.10;;
5295;SDS011;2670;42.720;23.336;2023-09-18T00:47:30;18.53;;;14.73;;
5295;SDS011;2670;42.720;23.336;2023-09-18T00:49:58;20.13;;;13.70;;
5295;SDS011;2670;42.720;23.336;2023-09-18T00:52:25;21.10;;;13.60;;
5295;SDS011;2670;42.720;23.336;2023-09-18T00:54:54;25.03;;;13.43;;
5295;SDS011;2670;42.720;23.336;2023-09-18T00:57:21;19.83;;;14.83;;
5295;SDS011;2670;42.720;23.336;2023-09-18T00:59:48;18.37;;;13.43;;
5295;SDS011;2670;42.720;23.336;2023-09-18T01:02:15;14.80;;;12.00;;
5295;SDS011;2670;42.720;23.336;2023-09-18T01:04:42;18.57;;;12.23;;
5295;SDS011;2670;42.720;23.336;2023-09-18T01:07:09;18.23;;;13.60;;
5295;SDS011;2670;42.720;23.336;2023-09-18T01:09:36;17.60;;;13.30;;
5295;SDS011;2670;42.720;23.336;2023-09-18T01:12:06;18.17;;;13.13;;
5295;SDS011;2670;42.720;23.336;2023-09-18T01:14:39;19.40;;;13.40;;
5295;SDS011;2670;42.720;23.336;2023-09-18T01:17:09;18.87;;;13.47;;
5295;SDS011;2670;42.720;23.336;2023-09-18T01:19:37;15.37;;;11.43;;
5295;SDS011;2670;42.720;23.336;2023-09-18T01:22:04;15.00;;;11.57;;
5295;SDS011;2670;42.720;23.336;2023-09-18T01:24:34;18.80;;;10.50;;
5295;SDS011;2670;42.720;23.336;2023-09-18T01:27:01;16.00;;;9.93;;
5295;SDS011;2670;42.720;23.336;2023-09-18T01:29:29;14.60;;;10.00;;
5295;SDS011;2670;42.720;23.336;2023-09-18T01:31:56;10.20;;;9.10;;
5295;SDS011;2670;42.720;23.336;2023-09-18T01:34:24;11.87;;;8.73;;
5295;SDS011;2670;42.720;23.336;2023-09-18T01:36:56;16.60;;;9.17;;
5295;SDS011;2670;42.720;23.336;2023-09-18T01:39:24;19.10;;;9.83;;
5295;SDS011;2670;42.720;23.336;2023-09-18T01:41:57;13.10;;;10.00;;
5295;SDS011;2670;42.720;23.336;2023-09-18T01:44:25;14.77;;;9.70;;
5295;SDS011;2670;42.720;23.336;2023-09-18T01:46:52;20.80;;;10.50;;
5295;SDS011;2670;42.720;23.336;2023-09-18T01:49:26;14.73;;;10.17;;
5295;SDS011;2670;42.720;23.336;2023-09-18T01:51:53;21.67;;;12.73;;
5295;SDS011;2670;42.720;23.336;2023-09-18T01:54:20;16.20;;;11.80;;
5295;SDS011;2670;42.720;23.336;2023-09-18T01:56:47;15.97;;;11.30;;
5295;SDS011;2670;42.720;23.336;2023-09-18T01:59:15;20.43;;;13.30;;
5295;SDS011;2670;42.720;23.336;2023-09-18T02:01:41;21.20;;;13.33;;
5295;SDS011;2670;42.720;23.336;2023-09-18T02:04:08;22.37;;;12.23;;
5295;SDS011;2670;42.720;23.336;2023-09-18T02:06:35;20.53;;;14.50;;
5295;SDS011;2670;42.720;23.336;2023-09-18T02:09:02;21.67;;;14.67;;
5295;SDS011;2670;42.720;23.336;2023-09-18T02:11:29;22.73;;;15.37;;
5295;SDS011;2670;42.720;23.336;2023-09-18T02:13:56;22.17;;;14.90;;
5295;SDS011;2670;42.720;23.336;2023-09-18T02:16:24;22.87;;;16.00;;
5295;SDS011;2670;42.720;23.336;2023-09-18T02:18:54;18.20;;;14.37;;
5295;SDS011;2670;42.720;23.336;2023-09-18T02:21:21;23.00;;;16.40;;
5295;SDS011;2670;42.720;23.336;2023-09-18T02:23:49;17.73;;;13.20;;
5295;SDS011;2670;42.720;23.336;2023-09-18T02:26:16;18.27;;;12.97;;
5295;SDS011;2670;42.720;23.336;2023-09-18T02:28:42;15.47;;;12.00;;
5295;SDS011;2670;42.720;23.336;2023-09-18T02:31:09;18.00;;;11.53;;
5295;SDS011;2670;42.720;23.336;2023-09-18T02:33:37;18.30;;;10.20;;
5295;SDS011;2670;42.720;23.336;2023-09-18T02:36:04;15.43;;;11.23;;
5295;SDS011;2670;42.720;23.336;2023-09-18T02:38:31;12.43;;;9.53;;
5295;SDS011;2670;42.720;23.336;2023-09-18T02:40:59;12.27;;;9.33;;
5295;SDS011;2670;42.720;23.336;2023-09-18T02:43:25;20.63;;;10.47;;
5295;SDS011;2670;42.720;23.336;2023-09-18T02:45:52;21.00;;;10.33;;
5295;SDS011;2670;42.720;23.336;2023-09-18T02:48:19;17.97;;;10.70;;
5295;SDS011;2670;42.720;23.336;2023-09-18T02:50:47;17.87;;;9.50;;
5295;SDS011;2670;42.720;23.336;2023-09-18T02:53:16;15.43;;;9.43;;
5295;SDS011;2670;42.720;23.336;2023-09-18T02:55:45;13.97;;;9.60;;
5295;SDS011;2670;42.720;23.336;2023-09-18T02:58:12;14.67;;;9.50;;
5295;SDS011;2670;42.720;23.336;2023-09-18T03:00:41;9.83;;;7.47;;
5295;SDS011;2670;42.720;23.336;2023-09-18T03:03:08;16.70;;;8.80;;
5295;SDS011;2670;42.720;23.336;2023-09-18T03:05:35;18.33;;;9.67;;
5295;SDS011;2670;42.720;23.336;2023-09-18T03:08:03;16.60;;;9.30;;
5295;SDS011;2670;42.720;23.336;2023-09-18T03:10:32;14.03;;;9.43;;
5295;SDS011;2670;42.720;23.336;2023-09-18T03:13:00;14.60;;;10.00;;
5295;SDS011;2670;42.720;23.336;2023-09-18T03:15:27;14.63;;;10.00;;
5295;SDS011;2670;42.720;23.336;2023-09-18T03:17:53;15.30;;;10.40;;
5295;SDS011;2670;42.720;23.336;2023-09-18T03:20:21;17.73;;;11.30;;
5295;SDS011;2670;42.720;23.336;2023-09-18T03:22:48;11.97;;;9.90;;
5295;SDS011;2670;42.720;23.336;2023-09-18T03:25:17;17.20;;;11.10;;
5295;SDS011;2670;42.720;23.336;2023-09-18T03:27:43;15.53;;;11.10;;
5295;SDS011;2670;42.720;23.336;2023-09-18T03:30:10;17.60;;;12.23;;
5295;SDS011;2670;42.720;23.336;2023-09-18T03:32:40;18.83;;;11.30;;
5295;SDS011;2670;42.720;23.336;2023-09-18T03:35:07;18.50;;;13.20;;
5295;SDS011;2670;42.720;23.336;2023-09-18T03:37:40;22.57;;;12.80;;
5295;SDS011;2670;42.720;23.336;2023-09-18T03:40:07;17.63;;;13.47;;
5295;SDS011;2670;42.720;23.336;2023-09-18T03:42:36;22.70;;;14.10;;
5295;SDS011;2670;42.720;23.336;2023-09-18T03:45:04;20.57;;;14.20;;
5295;SDS011;2670;42.720;23.336;2023-09-18T03:47:33;23.73;;;14.43;;
5295;SDS011;2670;42.720;23.336;2023-09-18T03:50:00;20.00;;;15.50;;
5295;SDS011;2670;42.720;23.336;2023-09-18T03:52:26;18.03;;;13.97;;
5295;SDS011;2670;42.720;23.336;2023-09-18T03:54:53;24.60;;;15.10;;
5295;SDS011;2670;42.720;23.336;2023-09-18T03:57:20;21.23;;;14.00;;
5295;SDS011;2670;42.720;23.336;2023-09-18T03:59:49;21.87;;;14.23;;
5295;SDS011;2670;42.720;23.336;2023-09-18T04:02:15;28.93;;;15.23;;
5295;SDS011;2670;42.720;23.336;2023-09-18T04:04:42;24.53;;;16.07;;
5295;SDS011;2670;42.720;23.336;2023-09-18T04:07:09;26.97;;;15.30;;
5295;SDS011;2670;42.720;23.336;2023-09-18T04:09:36;25.57;;;15.37;;
5295;SDS011;2670;42.720;23.336;2023-09-18T04:12:05;27.20;;;16.53;;
5295;SDS011;2670;42.720;23.336;2023-09-18T04:14:32;29.40;;;17.23;;
5295;SDS011;2670;42.720;23.336;2023-09-18T04:17:00;29.50;;;16.87;;
5295;SDS011;2670;42.720;23.336;2023-09-18T04:19:27;26.93;;;14.33;;
5295;SDS011;2670;42.720;23.336;2023-09-18T04:21:54;16.20;;;11.83;;
5295;SDS011;2670;42.720;23.336;2023-09-18T04:24:21;19.30;;;11.03;;
5295;SDS011;2670;42.720;23.336;2023-09-18T04:26:48;17.30;;;10.70;;
5295;SDS011;2670;42.720;23.336;2023-09-18T04:29:17;16.80;;;10.70;;
5295;SDS011;2670;42.720;23.336;2023-09-18T04:31:44;16.23;;;9.53;;
5295;SDS011;2670;42.720;23.336;2023-09-18T04:34:13;19.00;;;10.37;;
5295;SDS011;2670;42.720;23.336;2023-09-18T04:36:40;15.47;;;9.60;;
5295;SDS011;2670;42.720;23.336;2023-09-18T04:39:08;14.57;;;10.03;;
5295;SDS011;2670;42.720;23.336;2023-09-18T04:41:35;16.43;;;9.73;;
5295;SDS011;2670;42.720;23.336;2023-09-18T04:44:02;19.00;;;11.73;;
5295;SDS011;2670;42.720;23.336;2023-09-18T04:46:30;19.27;;;11.10;;
5295;SDS011;2670;42.720;23.336;2023-09-18T04:48:57;18.07;;;10.83;;
5295;SDS011;2670;42.720;23.336;2023-09-18T04:51:25;14.60;;;10.87;;
5295;SDS011;2670;42.720;23.336;2023-09-18T04:53:52;17.67;;;12.20;;
5295;SDS011;2670;42.720;23.336;2023-09-18T04:56:19;15.93;;;11.23;;
5295;SDS011;2670;42.720;23.336;2023-09-18T04:58:46;26.73;;;13.90;;
5295;SDS011;2670;42.720;23.336;2023-09-18T05:01:13;18.60;;;11.70;;
5295;SDS011;2670;42.720;23.336;2023-09-18T05:03:40;22.40;;;13.60;;
5295;SDS011;2670;42.720;23.336;2023-09-18T05:06:07;19.40;;;13.10;;
5295;SDS011;2670;42.720;23.336;2023-09-18T05:08:35;24.33;;;14.80;;
5295;SDS011;2670;42.720;23.336;2023-09-18T05:11:02;20.20;;;13.50;;
5295;SDS011;2670;42.720;23.336;2023-09-18T05:13:28;24.77;;;15.07;;
5295;SDS011;2670;42.720;23.336;2023-09-18T05:15:55;27.03;;;13.97;;
5295;SDS011;2670;42.720;23.336;2023-09-18T05:18:24;22.07;;;14.30;;
5295;SDS011;2670;42.720;23.336;2023-09-18T05:20:50;21.70;;;12.80;;
5295;SDS011;2670;42.720;23.336;2023-09-18T05:23:17;27.07;;;11.97;;
5295;SDS011;2670;42.720;23.336;2023-09-18T05:25:45;23.93;;;12.57;;
5295;SDS011;2670;42.720;23.336;2023-09-18T05:28:12;24.17;;;12.20;;
5295;SDS011;2670;42.720;23.336;2023-09-18T05:30:39;24.70;;;11.03;;
5295;SDS011;2670;42.720;23.336;2023-09-18T05:33:06;17.93;;;10.53;;
5295;SDS011;2670;42.720;23.336;2023-09-18T05:35:34;18.27;;;11.63;;
5295;SDS011;2670;42.720;23.336;2023-09-18T05:38:02;20.03;;;12.27;;
5295;SDS011;2670;42.720;23.336;2023-09-18T05:40:28;22.70;;;12.97;;
5295;SDS011;2670;42.720;23.336;2023-09-18T05:42:56;20.83;;;13.13;;
5295;SDS011;2670;42.720;23.336;2023-09-18T05:45:23;21.00;;;13.80;;
5295;SDS011;2670;42.720;23.336;2023-09-18T05:47:51;23.50;;;14.20;;
5295;SDS011;2670;42.720;23.336;2023-09-18T05:50:19;25.50;;;14.20;;
5295;SDS011;2670;42.720;23.336;2023-09-18T05:52:46;21.10;;;14.43;;
5295;SDS011;2670;42.720;23.336;2023-09-18T05:55:14;20.40;;;13.60;;
5295;SDS011;2670;42.720;23.336;2023-09-18T05:57:41;25.63;;;13.10;;
5295;SDS011;2670;42.720;23.336;2023-09-18T06:00:10;22.80;;;14.60;;
5295;SDS011;2670;42.720;23.336;2023-09-18T06:02:38;21.03;;;14.30;;
5295;SDS011;2670;42.720;23.336;2023-09-18T06:05:05;23.53;;;14.23;;
5295;SDS011;2670;42.720;23.336;2023-09-18T06:07:32;27.87;;;14.70;;
5295;SDS011;2670;42.720;23.336;2023-09-18T06:09:59;22.20;;;15.17;;
5295;SDS011;2670;42.720;23.336;2023-09-18T06:12:25;20.27;;;13.80;;
5295;SDS011;2670;42.720;23.336;2023-09-18T06:14:52;18.10;;;12.00;;
5295;SDS011;2670;42.720;23.336;2023-09-18T06:17:20;28.10;;;12.90;;
5295;SDS011;2670;42.720;23.336;2023-09-18T06:19:47;20.57;;;12.33;;
5295;SDS011;2670;42.720;23.336;2023-09-18T06:22:14;17.97;;;11.07;;
5295;SDS011;2670;42.720;23.336;2023-09-18T06:24:41;17.60;;;11.80;;
5295;SDS011;2670;42.720;23.336;2023-09-18T06:27:08;21.73;;;9.80;;
5295;SDS011;2670;42.720;23.336;2023-09-18T06:29:36;12.70;;;9.67;;
5295;SDS011;2670;42.720;23.336;2023-09-18T06:32:04;15.93;;;10.20;;
5295;SDS011;2670;42.720;23.336;2023-09-18T06:34:33;16.63;;;10.30;;
5295;SDS011;2670;42.720;23.336;2023-09-18T06:37:00;16.97;;;11.33;;
5295;SDS011;2670;42.720;23.336;2023-09-18T06:39:28;22.07;;;11.87;;
5295;SDS011;2670;42.720;23.336;2023-09-18T06:41:55;24.40;;;12.73;;
5295;SDS011;2670;42.720;23.336;2023-09-18T06:44:22;22.77;;;11.10;;
5295;SDS011;2670;42.720;23.336;2023-09-18T06:46:49;23.33;;;12.00;;
5295;SDS011;2670;42.720;23.336;2023-09-18T06:49:15;19.30;;;13.00;;
5295;SDS011;2670;42.720;23.336;2023-09-18T06:51:43;25.20;;;12.07;;
5295;SDS011;2670;42.720;23.336;2023-09-18T06:54:10;18.37;;;11.37;;
5295;SDS011;2670;42.720;23.336;2023-09-18T06:56:37;17.33;;;11.50;;
5295;SDS011;2670;42.720;23.336;2023-09-18T06:59:04;18.17;;;12.73;;
5295;SDS011;2670;42.720;23.336;2023-09-18T07:01:30;19.53;;;11.77;;
5295;SDS011;2670;42.720;23.336;2023-09-18T07:03:58;21.27;;;13.43;;
5295;SDS011;2670;42.720;23.336;2023-09-18T07:06:25;18.20;;;12.77;;
5295;SDS011;2670;42.720;23.336;2023-09-18T07:08:53;20.90;;;14.00;;
5295;SDS011;2670;42.720;23.336;2023-09-18T07:11:20;21.40;;;14.20;;
5295;SDS011;2670;42.720;23.336;2023-09-18T07:13:46;20.27;;;12.17;;
5295;SDS011;2670;42.720;23.336;2023-09-18T07:16:13;20.90;;;13.83;;
5295;SDS011;2670;42.720;23.336;2023-09-18T07:18:40;23.23;;;13.67;;
5295;SDS011;2670;42.720;23.336;2023-09-18T07:21:06;27.40;;;15.80;;
5295;SDS011;2670;42.720;23.336;2023-09-18T07:23:33;21.27;;;13.47;;
5295;SDS011;2670;42.720;23.336;2023-09-18T07:26:03;24.00;;;15.40;;
5295;SDS011;2670;42.720;23.336;2023-09-18T07:28:31;20.83;;;14.07;;
5295;SDS011;2670;42.720;23.336;2023-09-18T07:31:02;26.40;;;14.17;;
5295;SDS011;2670;42.720;23.336;2023-09-18T07:33:31;28.33;;;14.90;;
5295;SDS011;2670;42.720;23.336;2023-09-18T07:35:57;25.53;;;14.90;;
5295;SDS011;2670;42.720;23.336;2023-09-18T07:38:24;19.77;;;13.80;;
5295;SDS011;2670;42.720;23.336;2023-09-18T07:40:51;19.73;;;13.57;;
5295;SDS011;2670;42.720;23.336;2023-09-18T07:43:19;23.13;;;14.07;;
5295;SDS011;2670;42.720;23.336;2023-09-18T07:45:45;26.50;;;13.97;;
5295;SDS011;2670;42.720;23.336;2023-09-18T07:48:12;22.63;;;13.63;;
5295;SDS011;2670;42.720;23.336;2023-09-18T07:50:41;16.83;;;11.43;;
5295;SDS011;2670;42.720;23.336;2023-09-18T07:53:09;16.90;;;12.20;;
5295;SDS011;2670;42.720;23.336;2023-09-18T07:55:36;23.37;;;13.07;;
5295;SDS011;2670;42.720;23.336;2023-09-18T07:58:03;19.00;;;12.13;;
5295;SDS011;2670;42.720;23.336;2023-09-18T08:00:31;20.27;;;11.10;;
5295;SDS011;2670;42.720;23.336;2023-09-18T08:02:58;20.40;;;12.30;;
5295;SDS011;2670;42.720;23.336;2023-09-18T08:05:26;22.20;;;10.80;;
5295;SDS011;2670;42.720;23.336;2023-09-18T08:07:53;18.00;;;12.23;;
5295;SDS011;2670;42.720;23.336;2023-09-18T08:10:22;15.97;;;11.57;;
5295;SDS011;2670;42.720;23.336;2023-09-18T08:12:48;20.90;;;11.40;;
5295;SDS011;2670;42.720;23.336;2023-09-18T08:15:17;13.20;;;9.87;;
5295;SDS011;2670;42.720;23.336;2023-09-18T08:17:46;16.00;;;10.47;;
5295;SDS011;2670;42.720;23.336;2023-09-18T08:20:14;17.80;;;12.00;;
5295;SDS011;2670;42.720;23.336;2023-09-18T08:22:41;18.03;;;10.93;;
5295;SDS011;2670;42.720;23.336;2023-09-18T08:25:08;17.77;;;12.60;;
5295;SDS011;2670;42.720;23.336;2023-09-18T08:27:36;18.23;;;12.03;;
5295;SDS011;2670;42.720;23.336;2023-09-18T08:30:05;17.80;;;10.97;;
5295;SDS011;2670;42.720;23.336;2023-09-18T08:32:33;16.13;;;11.00;;
5295;SDS011;2670;42.720;23.336;2023-09-18T08:35:01;17.07;;;11.00;;
5295;SDS011;2670;42.720;23.336;2023-09-18T08:37:28;18.70;;;11.93;;
5295;SDS011;2670;42.720;23.336;2023-09-18T08:39:55;15.63;;;10.37;;
5295;SDS011;2670;42.720;23.336;2023-09-18T08:42:22;14.50;;;11.03;;
5295;SDS011;2670;42.720;23.336;2023-09-18T08:44:51;15.20;;;11.07;;
5295;SDS011;2670;42.720;23.336;2023-09-18T08:47:18;20.20;;;10.77;;
5295;SDS011;2670;42.720;23.336;2023-09-18T08:49:45;13.10;;;9.40;;
5295;SDS011;2670;42.720;23.336;2023-09-18T08:52:16;18.70;;;11.37;;
5295;SDS011;2670;42.720;23.336;2023-09-18T08:54:43;15.90;;;10.33;;
5295;SDS011;2670;42.720;23.336;2023-09-18T08:57:12;20.40;;;11.37;;
5295;SDS011;2670;42.720;23.336;2023-09-18T08:59:39;15.50;;;11.67;;
5295;SDS011;2670;42.720;23.336;2023-09-18T09:02:06;15.70;;;11.20;;
5295;SDS011;2670;42.720;23.336;2023-09-18T09:04:36;17.30;;;11.10;;
5295;SDS011;2670;42.720;23.336;2023-09-18T09:07:03;14.53;;;10.87;;
5295;SDS011;2670;42.720;23.336;2023-09-18T09:09:33;17.73;;;10.50;;
5295;SDS011;2670;42.720;23.336;2023-09-18T09:12:00;24.60;;;11.30;;
5295;SDS011;2670;42.720;23.336;2023-09-18T09:14:26;13.33;;;10.10;;
5295;SDS011;2670;42.720;23.336;2023-09-18T09:16:54;13.10;;;10.10;;
5295;SDS011;2670;42.720;23.336;2023-09-18T09:19:28;19.83;;;11.20;;
5295;SDS011;2670;42.720;23.336;2023-09-18T09:21:56;13.03;;;9.27;;
5295;SDS011;2670;42.720;23.336;2023-09-18T09:24:36;20.30;;;9.50;;
5295;SDS011;2670;42.720;23.336;2023-09-18T09:27:04;16.03;;;9.40;;
5295;SDS011;2670;42.720;23.336;2023-09-18T09:29:31;13.63;;;8.80;;
5295;SDS011;2670;42.720;23.336;2023-09-18T09:32:11;13.57;;;8.57;;
5295;SDS011;2670;42.720;23.336;2023-09-18T09:34:40;12.73;;;8.80;;
5295;SDS011;2670;42.720;23.336;2023-09-18T09:37:07;13.83;;;8.17;;
5295;SDS011;2670;42.720;23.336;2023-09-18T09:39:34;15.80;;;8.53;;
5295;SDS011;2670;42.720;23.336;2023-09-18T09:42:14;16.20;;;8.93;;
5295;SDS011;2670;42.720;23.336;2023-09-18T09:44:44;15.40;;;9.47;;
5295;SDS011;2670;42.720;23.336;2023-09-18T09:47:11;11.53;;;8.10;;
5295;SDS011;2670;42.720;23.336;2023-09-18T09:49:44;11.60;;;9.10;;
5295;SDS011;2670;42.720;23.336;2023-09-18T09:52:17;10.90;;;8.63;;
5295;SDS011;2670;42.720;23.336;2023-09-18T09:54:48;11.70;;;7.47;;
5295;SDS011;2670;42.720;23.336;2023-09-18T09:57:14;14.70;;;8.37;;
5295;SDS011;2670;42.720;23.336;2023-09-18T09:59:41;10.93;;;7.27;;
5295;SDS011;2670;42.720;23.336;2023-09-18T10:02:10;10.27;;;8.47;;
5295;SDS011;2670;42.720;23.336;2023-09-18T10:04:39;13.53;;;8.00;;
5295;SDS011;2670;42.720;23.336;2023-09-18T10:07:08;10.20;;;7.70;;
5295;SDS011;2670;42.720;23.336;2023-09-18T10:09:36;18.77;;;7.23;;
5295;SDS011;2670;42.720;23.336;2023-09-18T10:12:10;9.83;;;7.73;;
5295;SDS011;2670;42.720;23.336;2023-09-18T10:14:39;15.57;;;7.20;;
5295;SDS011;2670;42.720;23.336;2023-09-18T10:17:09;9.47;;;7.77;;
5295;SDS011;2670;42.720;23.336;2023-09-18T10:19:43;9.23;;;6.77;;
5295;SDS011;2670;42.720;23.336;2023-09-18T10:22:17;10.63;;;7.20;;
5295;SDS011;2670;42.720;23.336;2023-09-18T10:24:59;9.77;;;6.83;;
5295;SDS011;2670;42.720;23.336;2023-09-18T10:27:34;9.40;;;6.70;;
5295;SDS011;2670;42.720;23.336;2023-09-18T10:30:04;14.13;;;7.07;;
5295;SDS011;2670;42.720;23.336;2023-09-18T10:32:36;9.50;;;7.83;;
5295;SDS011;2670;42.720;23.336;2023-09-18T10:35:04;10.57;;;6.97;;
5295;SDS011;2670;42.720;23.336;2023-09-18T10:37:32;8.53;;;6.70;;
5295;SDS011;2670;42.720;23.336;2023-09-18T10:40:00;8.63;;;6.10;;
5295;SDS011;2670;42.720;23.336;2023-09-18T10:42:27;9.40;;;6.50;;
5295;SDS011;2670;42.720;23.336;2023-09-18T10:44:56;13.20;;;5.97;;
5295;SDS011;2670;42.720;23.336;2023-09-18T10:47:24;9.30;;;6.60;;
5295;SDS011;2670;42.720;23.336;2023-09-18T10:49:51;8.33;;;5.80;;
5295;SDS011;2670;42.720;23.336;2023-09-18T10:52:17;10.10;;;6.83;;
5295;SDS011;2670;42.720;23.336;2023-09-18T10:54:44;9.93;;;6.00;;
5295;SDS011;2670;42.720;23.336;2023-09-18T10:57:11;7.60;;;6.40;;
5295;SDS011;2670;42.720;23.336;2023-09-18T10:59:43;7.83;;;5.80;;
5295;SDS011;2670;42.720;23.336;2023-09-18T11:02:13;6.57;;;5.60;;
5295;SDS011;2670;42.720;23.336;2023-09-18T11:04:41;6.83;;;5.10;;
5295;SDS011;2670;42.720;23.336;2023-09-18T11:07:09;9.97;;;6.10;;
5295;SDS011;2670;42.720;23.336;2023-09-18T11:09:45;10.33;;;6.23;;
5295;SDS011;2670;42.720;23.336;2023-09-18T11:12:14;7.80;;;6.13;;
5295;SDS011;2670;42.720;23.336;2023-09-18T11:14:42;9.37;;;5.20;;
5295;SDS011;2670;42.720;23.336;2023-09-18T11:17:34;10.30;;;5.67;;
5295;SDS011;2670;42.720;23.336;2023-09-18T11:20:08;28.13;;;6.80;;
5295;SDS011;2670;42.720;23.336;2023-09-18T11:22:47;12.80;;;5.50;;
5295;SDS011;2670;42.720;23.336;2023-09-18T11:25:34;8.33;;;5.50;;
5295;SDS011;2670;42.720;23.336;2023-09-18T11:28:02;9.70;;;5.57;;
5295;SDS011;2670;42.720;23.336;2023-09-18T11:30:31;10.53;;;6.37;;
5295;SDS011;2670;42.720;23.336;2023-09-18T11:33:02;8.77;;;6.00;;
5295;SDS011;2670;42.720;23.336;2023-09-18T11:35:30;8.33;;;5.47;;
5295;SDS011;2670;42.720;23.336;2023-09-18T11:38:04;11.73;;;5.80;;
5295;SDS011;2670;42.720;23.336;2023-09-18T11:40:32;6.70;;;5.13;;
5295;SDS011;2670;42.720;23.336;2023-09-18T11:43:19;12.70;;;6.43;;
5295;SDS011;2670;42.720;23.336;2023-09-18T11:45:51;9.37;;;6.00;;
5295;SDS011;2670;42.720;23.336;2023-09-18T11:48:20;8.63;;;4.60;;
5295;SDS011;2670;42.720;23.336;2023-09-18T11:50:51;6.63;;;5.23;;
5295;SDS011;2670;42.720;23.336;2023-09-18T11:53:19;9.77;;;6.13;;
5295;SDS011;2670;42.720;23.336;2023-09-18T11:55:49;7.73;;;5.57;;
5295;SDS011;2670;42.720;23.336;2023-09-18T11:58:18;9.43;;;5.40;;
5295;SDS011;2670;42.720;23.336;2023-09-18T12:00:48;8.47;;;5.30;;
5295;SDS011;2670;42.720;23.336;2023-09-18T12:03:16;7.23;;;5.23;;
5295;SDS011;2670;42.720;23.336;2023-09-18T12:05:55;13.93;;;4.57;;
5295;SDS011;2670;42.720;23.336;2023-09-18T12:08:23;7.97;;;5.07;;
5295;SDS011;2670;42.720;23.336;2023-09-18T12:10:52;8.10;;;5.23;;
5295;SDS011;2670;42.720;23.336;2023-09-18T12:13:19;5.27;;;4.60;;
5295;SDS011;2670;42.720;23.336;2023-09-18T12:15:46;9.30;;;4.93;;
5295;SDS011;2670;42.720;23.336;2023-09-18T12:18:14;9.73;;;5.07;;
5295;SDS011;2670;42.720;23.336;2023-09-18T12:20:44;9.80;;;5.20;;
5295;SDS011;2670;42.720;23.336;2023-09-18T12:23:13;6.30;;;5.47;;
5295;SDS011;2670;42.720;23.336;2023-09-18T12:25:40;7.50;;;5.23;;
5295;SDS011;2670;42.720;23.336;2023-09-18T12:28:08;4.97;;;4.10;;
5295;SDS011;2670;42.720;23.336;2023-09-18T12:30:36;12.50;;;5.47;;
5295;SDS011;2670;42.720;23.336;2023-09-18T12:33:03;6.73;;;5.00;;
5295;SDS011;2670;42.720;23.336;2023-09-18T12:35:30;7.27;;;5.00;;
5295;SDS011;2670;42.720;23.336;2023-09-18T12:37:58;12.93;;;5.30;;
5295;SDS011;2670;42.720;23.336;2023-09-18T12:40:27;6.67;;;4.60;;
5295;SDS011;2670;42.720;23.336;2023-09-18T12:42:55;7.73;;;4.33;;
5295;SDS011;2670;42.720;23.336;2023-09-18T12:45:23;7.23;;;4.87;;
5295;SDS011;2670;42.720;23.336;2023-09-18T12:47:51;8.07;;;5.17;;
5295;SDS011;2670;42.720;23.336;2023-09-18T12:50:18;7.80;;;4.60;;
5295;SDS011;2670;42.720;23.336;2023-09-18T12:52:45;10.67;;;4.77;;
5295;SDS011;2670;42.720;23.336;2023-09-18T12:55:21;18.17;;;5.30;;
5295;SDS011;2670;42.720;23.336;2023-09-18T12:57:50;7.50;;;4.53;;
5295;SDS011;2670;42.720;23.336;2023-09-18T13:00:17;8.77;;;5.80;;
5295;SDS011;2670;42.720;23.336;2023-09-18T13:02:46;5.23;;;4.67;;
5295;SDS011;2670;42.720;23.336;2023-09-18T13:05:18;7.50;;;4.40;;
5295;SDS011;2670;42.720;23.336;2023-09-18T13:07:45;9.43;;;5.10;;
5295;SDS011;2670;42.720;23.336;2023-09-18T13:10:12;6.27;;;5.10;;
5295;SDS011;2670;42.720;23.336;2023-09-18T13:12:41;6.50;;;4.70;;
5295;SDS011;2670;42.720;23.336;2023-09-18T13:15:10;9.43;;;5.57;;
5295;SDS011;2670;42.720;23.336;2023-09-18T13:17:40;7.33;;;4.77;;
5295;SDS011;2670;42.720;23.336;2023-09-18T13:20:10;6.90;;;4.90;;
5295;SDS011;2670;42.720;23.336;2023-09-18T13:22:39;6.60;;;5.07;;
5295;SDS011;2670;42.720;23.336;2023-09-18T13:25:07;6.60;;;4.80;;
5295;SDS011;2670;42.720;23.336;2023-09-18T13:27:35;6.40;;;4.60;;
5295;SDS011;2670;42.720;23.336;2023-09-18T13:30:03;10.70;;;5.03;;
5295;SDS011;2670;42.720;23.336;2023-09-18T13:32:34;9.03;;;4.77;;
5295;SDS011;2670;42.720;23.336;2023-09-18T13:35:01;6.90;;;5.00;;
5295;SDS011;2670;42.720;23.336;2023-09-18T13:37:30;8.37;;;5.23;;
5295;SDS011;2670;42.720;23.336;2023-09-18T13:39:57;9.40;;;4.90;;
5295;SDS011;2670;42.720;23.336;2023-09-18T13:42:26;9.90;;;4.50;;
5295;SDS011;2670;42.720;23.336;2023-09-18T13:44:55;8.83;;;4.93;;
5295;SDS011;2670;42.720;23.336;2023-09-18T13:47:21;10.83;;;5.10;;
5295;SDS011;2670;42.720;23.336;2023-09-18T13:49:49;9.80;;;5.60;;
5295;SDS011;2670;42.720;23.336;2023-09-18T13:52:16;5.33;;;4.70;;
5295;SDS011;2670;42.720;23.336;2023-09-18T13:54:45;11.43;;;4.60;;
5295;SDS011;2670;42.720;23.336;2023-09-18T13:57:16;15.23;;;5.77;;
5295;SDS011;2670;42.720;23.336;2023-09-18T13:59:43;6.10;;;4.57;;
5295;SDS011;2670;42.720;23.336;2023-09-18T14:02:10;13.83;;;5.00;;
5295;SDS011;2670;42.720;23.336;2023-09-18T14:04:37;20.07;;;5.90;;
5295;SDS011;2670;42.720;23.336;2023-09-18T14:07:05;7.33;;;5.33;;
5295;SDS011;2670;42.720;23.336;2023-09-18T14:09:32;7.83;;;4.90;;
5295;SDS011;2670;42.720;23.336;2023-09-18T14:11:59;9.33;;;4.80;;
5295;SDS011;2670;42.720;23.336;2023-09-18T14:14:25;9.00;;;5.23;;
5295;SDS011;2670;42.720;23.336;2023-09-18T14:16:52;10.30;;;7.10;;
5295;SDS011;2670;42.720;23.336;2023-09-18T14:19:20;7.50;;;5.00;;
5295;SDS011;2670;42.720;23.336;2023-09-18T14:21:46;10.80;;;5.20;;
5295;SDS011;2670;42.720;23.336;2023-09-18T14:24:16;5.70;;;4.93;;
5295;SDS011;2670;42.720;23.336;2023-09-18T14:26:43;6.20;;;4.80;;
5295;SDS011;2670;42.720;23.336;2023-09-18T14:29:11;11.20;;;5.83;;
5295;SDS011;2670;42.720;23.336;2023-09-18T14:31:38;8.17;;;5.10;;
5295;SDS011;2670;42.720;23.336;2023-09-18T14:34:05;9.80;;;4.93;;
5295;SDS011;2670;42.720;23.336;2023-09-18T14:36:33;5.20;;;4.70;;
5295;SDS011;2670;42.720;23.336;2023-09-18T14:39:01;19.00;;;5.47;;
5295;SDS011;2670;42.720;23.336;2023-09-18T14:41:29;9.50;;;4.90;;
5295;SDS011;2670;42.720;23.336;2023-09-18T14:43:57;9.30;;;5.53;;
5295;SDS011;2670;42.720;23.336;2023-09-18T14:46:24;7.03;;;5.37;;
5295;SDS011;2670;42.720;23.336;2023-09-18T14:48:51;5.60;;;4.97;;